sensor_id;sensor_type;location;lat;lon;timestamp;P1;durP1;ratioP1;P2;durP2;ratioP2
32172;SDS011;18679;45.190;5.722;2022-08-01T00:02:19;1.80;;;1.15;;
32172;SDS011;18679;45.190;5.722;2022-08-01T00:05:20;1.95;;;1.20;;
32172;SDS011;18679;45.190;5.722;2022-08-01T00:08:21;1.98;;;1.08;;
32172;SDS011;18679;45.190;5.722;2022-08-01T00:11:22;1.65;;;1.15;;
32172;SDS011;18679;45.190;5.722;2022-08-01T00:14:23;2.20;;;1.17;;
32172;SDS011;18679;45.190;5.722;2022-08-01T00:17:24;2.97;;;1.15;;
32172;SDS011;18679;45.190;5.722;2022-08-01T00:20:25;9.60;;;1.20;;
32172;SDS011;18679;45.190;5.722;2022-08-01T00:23:26;1.65;;;1.27;;
32172;SDS011;18679;45.190;5.722;2022-08-01T00:26:27;3.22;;;1.10;;
32172;SDS011;18679;45.190;5.722;2022-08-01T00:29:28;11.95;;;1.30;;
32172;SDS011;18679;45.190;5.722;2022-08-01T00:32:32;1.38;;;1.27;;
32172;SDS011;18679;45.190;5.722;2022-08-01T00:35:33;1.90;;;1.45;;
32172;SDS011;18679;45.190;5.722;2022-08-01T00:38:34;3.13;;;1.20;;
32172;SDS011;18679;45.190;5.722;2022-08-01T00:41:35;1.60;;;1.10;;
32172;SDS011;18679;45.190;5.722;2022-08-01T00:44:36;1.45;;;1.23;;
32172;SDS011;18679;45.190;5.722;2022-08-01T00:47:37;2.10;;;1.10;;
32172;SDS011;18679;45.190;5.722;2022-08-01T00:50:39;2.78;;;1.40;;
32172;SDS011;18679;45.190;5.722;2022-08-01T00:53:40;1.23;;;1.13;;
32172;SDS011;18679;45.190;5.722;2022-08-01T00:56:41;1.40;;;1.10;;
32172;SDS011;18679;45.190;5.722;2022-08-01T00:59:42;2.40;;;1.20;;
32172;SDS011;18679;45.190;5.722;2022-08-01T01:02:43;1.35;;;1.10;;
32172;SDS011;18679;45.190;5.722;2022-08-01T01:05:48;4.80;;;1.50;;
32172;SDS011;18679;45.190;5.722;2022-08-01T01:12:15;2.28;;;1.20;;
32172;SDS011;18679;45.190;5.722;2022-08-01T01:15:23;2.83;;;1.10;;
32172;SDS011;18679;45.190;5.722;2022-08-01T01:22:43;1.55;;;1.15;;
32172;SDS011;18679;45.190;5.722;2022-08-01T01:29:14;1.30;;;1.20;;
32172;SDS011;18679;45.190;5.722;2022-08-01T01:32:20;2.08;;;1.35;;
32172;SDS011;18679;45.190;5.722;2022-08-01T01:35:28;4.00;;;1.10;;
32172;SDS011;18679;45.190;5.722;2022-08-01T01:38:33;5.03;;;1.10;;
32172;SDS011;18679;45.190;5.722;2022-08-01T01:41:38;1.40;;;1.13;;
32172;SDS011;18679;45.190;5.722;2022-08-01T01:44:40;2.13;;;1.20;;
32172;SDS011;18679;45.190;5.722;2022-08-01T01:47:43;1.65;;;1.38;;
32172;SDS011;18679;45.190;5.722;2022-08-01T01:50:48;1.30;;;0.95;;
32172;SDS011;18679;45.190;5.722;2022-08-01T01:53:52;1.85;;;1.25;;
32172;SDS011;18679;45.190;5.722;2022-08-01T01:56:55;4.55;;;1.38;;
32172;SDS011;18679;45.190;5.722;2022-08-01T01:59:58;2.53;;;1.25;;
32172;SDS011;18679;45.190;5.722;2022-08-01T02:03:01;2.08;;;1.30;;
32172;SDS011;18679;45.190;5.722;2022-08-01T02:06:03;2.65;;;1.35;;
32172;SDS011;18679;45.190;5.722;2022-08-01T02:09:05;2.30;;;1.30;;
32172;SDS011;18679;45.190;5.722;2022-08-01T02:12:11;1.98;;;1.40;;
32172;SDS011;18679;45.190;5.722;2022-08-01T02:15:14;1.73;;;1.27;;
32172;SDS011;18679;45.190;5.722;2022-08-01T02:18:18;1.88;;;1.60;;
32172;SDS011;18679;45.190;5.722;2022-08-01T02:21:20;2.10;;;1.13;;
32172;SDS011;18679;45.190;5.722;2022-08-01T02:27:54;2.42;;;1.75;;
32172;SDS011;18679;45.190;5.722;2022-08-01T02:31:19;4.90;;;1.50;;
32172;SDS011;18679;45.190;5.722;2022-08-01T02:34:22;2.22;;;1.25;;
32172;SDS011;18679;45.190;5.722;2022-08-01T02:37:26;2.60;;;1.50;;
32172;SDS011;18679;45.190;5.722;2022-08-01T02:40:29;4.40;;;1.30;;
32172;SDS011;18679;45.190;5.722;2022-08-01T02:43:34;6.30;;;1.70;;
32172;SDS011;18679;45.190;5.722;2022-08-01T02:46:39;2.70;;;1.30;;
32172;SDS011;18679;45.190;5.722;2022-08-01T02:49:46;1.60;;;1.17;;
32172;SDS011;18679;45.190;5.722;2022-08-01T02:52:50;4.07;;;1.50;;
32172;SDS011;18679;45.190;5.722;2022-08-01T02:55:52;1.60;;;1.30;;
32172;SDS011;18679;45.190;5.722;2022-08-01T02:58:54;2.10;;;1.27;;
32172;SDS011;18679;45.190;5.722;2022-08-01T03:01:56;2.70;;;1.73;;
32172;SDS011;18679;45.190;5.722;2022-08-01T03:04:59;1.35;;;1.25;;
32172;SDS011;18679;45.190;5.722;2022-08-01T03:08:02;1.92;;;1.42;;
32172;SDS011;18679;45.190;5.722;2022-08-01T03:11:04;3.33;;;1.55;;
32172;SDS011;18679;45.190;5.722;2022-08-01T03:14:07;1.33;;;1.23;;
32172;SDS011;18679;45.190;5.722;2022-08-01T03:17:10;1.80;;;1.33;;
32172;SDS011;18679;45.190;5.722;2022-08-01T03:20:13;1.60;;;1.45;;
32172;SDS011;18679;45.190;5.722;2022-08-01T03:23:15;2.42;;;1.30;;
32172;SDS011;18679;45.190;5.722;2022-08-01T03:26:17;2.60;;;1.90;;
32172;SDS011;18679;45.190;5.722;2022-08-01T03:29:21;3.20;;;1.50;;
32172;SDS011;18679;45.190;5.722;2022-08-01T03:32:24;1.70;;;1.60;;
32172;SDS011;18679;45.190;5.722;2022-08-01T03:35:33;1.77;;;1.45;;
32172;SDS011;18679;45.190;5.722;2022-08-01T03:38:38;4.40;;;1.40;;
32172;SDS011;18679;45.190;5.722;2022-08-01T03:41:41;5.05;;;1.65;;
32172;SDS011;18679;45.190;5.722;2022-08-01T03:48:01;1.88;;;1.50;;
32172;SDS011;18679;45.190;5.722;2022-08-01T03:51:06;3.80;;;1.52;;
32172;SDS011;18679;45.190;5.722;2022-08-01T03:54:09;3.03;;;1.48;;
32172;SDS011;18679;45.190;5.722;2022-08-01T03:57:13;4.40;;;1.67;;
32172;SDS011;18679;45.190;5.722;2022-08-01T04:00:15;3.63;;;1.63;;
32172;SDS011;18679;45.190;5.722;2022-08-01T04:03:18;5.38;;;1.73;;
32172;SDS011;18679;45.190;5.722;2022-08-01T04:06:19;5.50;;;1.67;;
32172;SDS011;18679;45.190;5.722;2022-08-01T04:09:21;2.65;;;1.80;;
32172;SDS011;18679;45.190;5.722;2022-08-01T04:12:22;4.18;;;1.98;;
32172;SDS011;18679;45.190;5.722;2022-08-01T04:15:23;6.63;;;1.75;;
32172;SDS011;18679;45.190;5.722;2022-08-01T04:18:24;1.92;;;1.52;;
32172;SDS011;18679;45.190;5.722;2022-08-01T04:21:25;2.88;;;1.85;;
32172;SDS011;18679;45.190;5.722;2022-08-01T04:24:28;4.05;;;1.73;;
32172;SDS011;18679;45.190;5.722;2022-08-01T04:27:32;3.83;;;1.95;;
32172;SDS011;18679;45.190;5.722;2022-08-01T04:30:37;4.78;;;1.70;;
32172;SDS011;18679;45.190;5.722;2022-08-01T04:33:40;4.20;;;2.00;;
32172;SDS011;18679;45.190;5.722;2022-08-01T04:36:46;2.55;;;1.88;;
32172;SDS011;18679;45.190;5.722;2022-08-01T04:39:49;5.40;;;1.70;;
32172;SDS011;18679;45.190;5.722;2022-08-01T04:42:52;4.55;;;2.13;;
32172;SDS011;18679;45.190;5.722;2022-08-01T04:45:54;4.45;;;1.92;;
32172;SDS011;18679;45.190;5.722;2022-08-01T04:48:56;3.53;;;1.67;;
32172;SDS011;18679;45.190;5.722;2022-08-01T04:51:57;3.17;;;1.90;;
32172;SDS011;18679;45.190;5.722;2022-08-01T04:55:00;4.15;;;2.05;;
32172;SDS011;18679;45.190;5.722;2022-08-01T04:58:01;3.55;;;1.77;;
32172;SDS011;18679;45.190;5.722;2022-08-01T05:01:02;3.80;;;2.25;;
32172;SDS011;18679;45.190;5.722;2022-08-01T05:04:03;3.03;;;2.00;;
32172;SDS011;18679;45.190;5.722;2022-08-01T05:07:04;2.63;;;1.60;;
32172;SDS011;18679;45.190;5.722;2022-08-01T05:10:06;5.15;;;2.08;;
32172;SDS011;18679;45.190;5.722;2022-08-01T05:13:07;2.80;;;1.90;;
32172;SDS011;18679;45.190;5.722;2022-08-01T05:16:08;3.72;;;2.30;;
32172;SDS011;18679;45.190;5.722;2022-08-01T05:19:09;2.78;;;1.80;;
32172;SDS011;18679;45.190;5.722;2022-08-01T05:22:10;4.65;;;2.30;;
32172;SDS011;18679;45.190;5.722;2022-08-01T05:25:11;3.25;;;1.58;;
32172;SDS011;18679;45.190;5.722;2022-08-01T05:28:12;5.00;;;1.65;;
32172;SDS011;18679;45.190;5.722;2022-08-01T05:31:13;2.55;;;1.35;;
32172;SDS011;18679;45.190;5.722;2022-08-01T05:34:14;3.78;;;2.05;;
32172;SDS011;18679;45.190;5.722;2022-08-01T05:37:15;2.50;;;1.70;;
32172;SDS011;18679;45.190;5.722;2022-08-01T05:40:16;1.88;;;1.50;;
32172;SDS011;18679;45.190;5.722;2022-08-01T05:43:17;2.00;;;1.80;;
32172;SDS011;18679;45.190;5.722;2022-08-01T05:46:18;2.85;;;1.80;;
32172;SDS011;18679;45.190;5.722;2022-08-01T05:49:19;11.02;;;2.25;;
32172;SDS011;18679;45.190;5.722;2022-08-01T05:52:20;6.28;;;2.08;;
32172;SDS011;18679;45.190;5.722;2022-08-01T05:55:20;5.28;;;2.10;;
32172;SDS011;18679;45.190;5.722;2022-08-01T05:58:22;3.13;;;1.98;;
32172;SDS011;18679;45.190;5.722;2022-08-01T06:01:22;10.93;;;1.90;;
32172;SDS011;18679;45.190;5.722;2022-08-01T06:04:23;2.20;;;2.00;;
32172;SDS011;18679;45.190;5.722;2022-08-01T06:07:24;6.35;;;2.55;;
32172;SDS011;18679;45.190;5.722;2022-08-01T06:10:25;3.60;;;1.98;;
32172;SDS011;18679;45.190;5.722;2022-08-01T06:13:26;8.88;;;2.05;;
32172;SDS011;18679;45.190;5.722;2022-08-01T06:16:27;4.53;;;2.28;;
32172;SDS011;18679;45.190;5.722;2022-08-01T06:19:28;2.75;;;2.45;;
32172;SDS011;18679;45.190;5.722;2022-08-01T06:22:29;4.75;;;2.15;;
32172;SDS011;18679;45.190;5.722;2022-08-01T06:25:29;2.85;;;2.17;;
32172;SDS011;18679;45.190;5.722;2022-08-01T06:28:31;5.05;;;1.85;;
32172;SDS011;18679;45.190;5.722;2022-08-01T06:31:32;7.05;;;2.13;;
32172;SDS011;18679;45.190;5.722;2022-08-01T06:34:32;6.72;;;2.05;;
32172;SDS011;18679;45.190;5.722;2022-08-01T06:37:33;3.35;;;2.03;;
32172;SDS011;18679;45.190;5.722;2022-08-01T06:40:35;4.53;;;2.28;;
32172;SDS011;18679;45.190;5.722;2022-08-01T06:43:36;2.55;;;1.80;;
32172;SDS011;18679;45.190;5.722;2022-08-01T06:46:37;4.43;;;2.08;;
32172;SDS011;18679;45.190;5.722;2022-08-01T06:49:38;6.07;;;2.30;;
32172;SDS011;18679;45.190;5.722;2022-08-01T06:52:40;4.43;;;1.88;;
32172;SDS011;18679;45.190;5.722;2022-08-01T06:55:41;2.38;;;1.75;;
32172;SDS011;18679;45.190;5.722;2022-08-01T06:58:42;5.30;;;2.20;;
32172;SDS011;18679;45.190;5.722;2022-08-01T07:01:43;5.43;;;1.88;;
32172;SDS011;18679;45.190;5.722;2022-08-01T07:04:44;3.85;;;1.50;;
32172;SDS011;18679;45.190;5.722;2022-08-01T07:07:45;5.70;;;2.08;;
32172;SDS011;18679;45.190;5.722;2022-08-01T07:10:46;3.45;;;2.03;;
32172;SDS011;18679;45.190;5.722;2022-08-01T07:13:47;2.85;;;1.90;;
32172;SDS011;18679;45.190;5.722;2022-08-01T07:16:49;3.08;;;1.70;;
32172;SDS011;18679;45.190;5.722;2022-08-01T07:19:50;8.40;;;1.85;;
32172;SDS011;18679;45.190;5.722;2022-08-01T07:22:53;3.10;;;1.88;;
32172;SDS011;18679;45.190;5.722;2022-08-01T07:25:54;2.85;;;1.95;;
32172;SDS011;18679;45.190;5.722;2022-08-01T07:28:55;5.40;;;1.70;;
32172;SDS011;18679;45.190;5.722;2022-08-01T07:31:57;4.72;;;1.83;;
32172;SDS011;18679;45.190;5.722;2022-08-01T07:34:58;3.08;;;2.25;;
32172;SDS011;18679;45.190;5.722;2022-08-01T07:37:59;4.28;;;1.70;;
32172;SDS011;18679;45.190;5.722;2022-08-01T07:41:00;2.97;;;1.80;;
32172;SDS011;18679;45.190;5.722;2022-08-01T07:44:02;7.00;;;2.15;;
32172;SDS011;18679;45.190;5.722;2022-08-01T07:47:03;5.78;;;2.10;;
32172;SDS011;18679;45.190;5.722;2022-08-01T07:50:05;3.15;;;1.73;;
32172;SDS011;18679;45.190;5.722;2022-08-01T07:53:07;2.15;;;1.90;;
32172;SDS011;18679;45.190;5.722;2022-08-01T07:56:10;4.80;;;2.13;;
32172;SDS011;18679;45.190;5.722;2022-08-01T07:59:11;5.28;;;1.90;;
32172;SDS011;18679;45.190;5.722;2022-08-01T08:02:12;2.42;;;2.00;;
32172;SDS011;18679;45.190;5.722;2022-08-01T08:05:12;3.08;;;1.90;;
32172;SDS011;18679;45.190;5.722;2022-08-01T08:08:13;5.40;;;1.70;;
32172;SDS011;18679;45.190;5.722;2022-08-01T08:11:15;4.15;;;1.77;;
32172;SDS011;18679;45.190;5.722;2022-08-01T08:14:17;1.85;;;1.75;;
32172;SDS011;18679;45.190;5.722;2022-08-01T08:17:18;6.22;;;1.90;;
32172;SDS011;18679;45.190;5.722;2022-08-01T08:20:19;4.07;;;2.10;;
32172;SDS011;18679;45.190;5.722;2022-08-01T08:23:24;3.75;;;2.00;;
32172;SDS011;18679;45.190;5.722;2022-08-01T08:26:44;3.00;;;1.77;;
32172;SDS011;18679;45.190;5.722;2022-08-01T08:29:45;4.65;;;1.92;;
32172;SDS011;18679;45.190;5.722;2022-08-01T08:32:45;2.95;;;2.05;;
32172;SDS011;18679;45.190;5.722;2022-08-01T08:35:47;7.50;;;2.03;;
32172;SDS011;18679;45.190;5.722;2022-08-01T08:38:48;4.72;;;1.67;;
32172;SDS011;18679;45.190;5.722;2022-08-01T08:41:49;4.50;;;1.80;;
32172;SDS011;18679;45.190;5.722;2022-08-01T08:44:50;9.32;;;2.20;;
32172;SDS011;18679;45.190;5.722;2022-08-01T08:47:51;3.05;;;1.60;;
32172;SDS011;18679;45.190;5.722;2022-08-01T08:50:53;1.77;;;1.60;;
32172;SDS011;18679;45.190;5.722;2022-08-01T08:53:57;2.20;;;2.00;;
32172;SDS011;18679;45.190;5.722;2022-08-01T08:56:59;5.10;;;1.90;;
32172;SDS011;18679;45.190;5.722;2022-08-01T09:00:01;3.13;;;2.10;;
32172;SDS011;18679;45.190;5.722;2022-08-01T09:03:02;8.48;;;1.83;;
32172;SDS011;18679;45.190;5.722;2022-08-01T09:06:03;5.63;;;2.13;;
32172;SDS011;18679;45.190;5.722;2022-08-01T09:09:04;8.77;;;1.98;;
32172;SDS011;18679;45.190;5.722;2022-08-01T09:12:06;2.53;;;1.70;;
32172;SDS011;18679;45.190;5.722;2022-08-01T09:15:07;4.40;;;2.30;;
32172;SDS011;18679;45.190;5.722;2022-08-01T09:18:08;2.53;;;1.92;;
32172;SDS011;18679;45.190;5.722;2022-08-01T09:21:25;7.72;;;1.63;;
32172;SDS011;18679;45.190;5.722;2022-08-01T09:24:30;3.65;;;1.65;;
32172;SDS011;18679;45.190;5.722;2022-08-01T09:27:32;3.83;;;1.70;;
32172;SDS011;18679;45.190;5.722;2022-08-01T09:30:37;2.45;;;1.60;;
32172;SDS011;18679;45.190;5.722;2022-08-01T09:33:55;3.35;;;1.80;;
32172;SDS011;18679;45.190;5.722;2022-08-01T09:37:01;5.60;;;1.83;;
32172;SDS011;18679;45.190;5.722;2022-08-01T09:40:03;1.90;;;1.50;;
32172;SDS011;18679;45.190;5.722;2022-08-01T09:43:11;13.45;;;2.17;;
32172;SDS011;18679;45.190;5.722;2022-08-01T09:46:12;3.97;;;1.48;;
32172;SDS011;18679;45.190;5.722;2022-08-01T09:49:13;3.88;;;1.90;;
32172;SDS011;18679;45.190;5.722;2022-08-01T09:52:15;7.03;;;1.80;;
32172;SDS011;18679;45.190;5.722;2022-08-01T09:55:20;3.45;;;1.70;;
32172;SDS011;18679;45.190;5.722;2022-08-01T09:58:21;3.13;;;1.80;;
32172;SDS011;18679;45.190;5.722;2022-08-01T10:01:22;4.72;;;1.65;;
32172;SDS011;18679;45.190;5.722;2022-08-01T10:04:23;2.72;;;1.80;;
32172;SDS011;18679;45.190;5.722;2022-08-01T10:07:24;2.10;;;1.80;;
32172;SDS011;18679;45.190;5.722;2022-08-01T10:10:25;2.20;;;1.58;;
32172;SDS011;18679;45.190;5.722;2022-08-01T10:13:27;1.85;;;1.55;;
32172;SDS011;18679;45.190;5.722;2022-08-01T10:16:28;3.33;;;1.80;;
32172;SDS011;18679;45.190;5.722;2022-08-01T10:19:30;2.97;;;2.08;;
32172;SDS011;18679;45.190;5.722;2022-08-01T10:22:32;9.35;;;1.80;;
32172;SDS011;18679;45.190;5.722;2022-08-01T10:25:35;3.75;;;1.73;;
32172;SDS011;18679;45.190;5.722;2022-08-01T10:28:41;3.50;;;1.30;;
32172;SDS011;18679;45.190;5.722;2022-08-01T10:31:48;3.00;;;1.50;;
32172;SDS011;18679;45.190;5.722;2022-08-01T10:34:49;6.80;;;1.50;;
32172;SDS011;18679;45.190;5.722;2022-08-01T10:37:51;4.25;;;1.73;;
32172;SDS011;18679;45.190;5.722;2022-08-01T10:40:57;4.72;;;1.40;;
32172;SDS011;18679;45.190;5.722;2022-08-01T10:44:02;4.60;;;1.45;;
32172;SDS011;18679;45.190;5.722;2022-08-01T10:47:08;3.38;;;1.33;;
32172;SDS011;18679;45.190;5.722;2022-08-01T10:53:24;1.95;;;1.60;;
32172;SDS011;18679;45.190;5.722;2022-08-01T10:56:26;5.40;;;1.20;;
32172;SDS011;18679;45.190;5.722;2022-08-01T11:02:59;2.30;;;1.50;;
32172;SDS011;18679;45.190;5.722;2022-08-01T11:06:03;5.05;;;1.77;;
32172;SDS011;18679;45.190;5.722;2022-08-01T11:09:05;3.35;;;1.33;;
32172;SDS011;18679;45.190;5.722;2022-08-01T11:12:40;2.60;;;1.60;;
32172;SDS011;18679;45.190;5.722;2022-08-01T11:15:41;1.50;;;1.40;;
32172;SDS011;18679;45.190;5.722;2022-08-01T11:18:49;1.92;;;1.27;;
32172;SDS011;18679;45.190;5.722;2022-08-01T11:24:57;1.85;;;1.30;;
32172;SDS011;18679;45.190;5.722;2022-08-01T11:34:16;2.83;;;1.42;;
32172;SDS011;18679;45.190;5.722;2022-08-01T11:37:27;6.20;;;1.40;;
32172;SDS011;18679;45.190;5.722;2022-08-01T11:40:29;2.58;;;1.35;;
32172;SDS011;18679;45.190;5.722;2022-08-01T11:43:30;7.88;;;1.67;;
32172;SDS011;18679;45.190;5.722;2022-08-01T11:46:50;10.30;;;2.03;;
32172;SDS011;18679;45.190;5.722;2022-08-01T11:49:51;11.00;;;1.35;;
32172;SDS011;18679;45.190;5.722;2022-08-01T11:52:58;1.40;;;1.25;;
32172;SDS011;18679;45.190;5.722;2022-08-01T11:56:00;1.20;;;1.10;;
32172;SDS011;18679;45.190;5.722;2022-08-01T11:59:01;2.72;;;1.25;;
32172;SDS011;18679;45.190;5.722;2022-08-01T12:02:03;2.55;;;1.33;;
32172;SDS011;18679;45.190;5.722;2022-08-01T12:08:10;10.15;;;1.42;;
32172;SDS011;18679;45.190;5.722;2022-08-01T12:11:11;11.07;;;1.15;;
32172;SDS011;18679;45.190;5.722;2022-08-01T12:14:15;4.72;;;1.42;;
32172;SDS011;18679;45.190;5.722;2022-08-01T12:17:18;3.13;;;1.30;;
32172;SDS011;18679;45.190;5.722;2022-08-01T12:20:20;6.45;;;1.10;;
32172;SDS011;18679;45.190;5.722;2022-08-01T12:23:22;6.00;;;1.58;;
32172;SDS011;18679;45.190;5.722;2022-08-01T12:26:23;1.50;;;1.23;;
32172;SDS011;18679;45.190;5.722;2022-08-01T12:29:39;3.17;;;1.08;;
32172;SDS011;18679;45.190;5.722;2022-08-01T12:32:42;1.23;;;1.13;;
32172;SDS011;18679;45.190;5.722;2022-08-01T12:35:44;4.32;;;1.10;;
32172;SDS011;18679;45.190;5.722;2022-08-01T12:38:45;2.53;;;0.90;;
32172;SDS011;18679;45.190;5.722;2022-08-01T12:44:53;7.35;;;1.30;;
32172;SDS011;18679;45.190;5.722;2022-08-01T12:47:55;2.65;;;1.10;;
32172;SDS011;18679;45.190;5.722;2022-08-01T12:50:59;1.05;;;0.90;;
32172;SDS011;18679;45.190;5.722;2022-08-01T12:54:02;3.20;;;0.93;;
32172;SDS011;18679;45.190;5.722;2022-08-01T12:57:05;2.03;;;1.00;;
32172;SDS011;18679;45.190;5.722;2022-08-01T13:00:23;2.60;;;1.17;;
32172;SDS011;18679;45.190;5.722;2022-08-01T13:03:25;5.63;;;1.00;;
32172;SDS011;18679;45.190;5.722;2022-08-01T13:06:28;1.58;;;1.20;;
32172;SDS011;18679;45.190;5.722;2022-08-01T13:09:29;4.68;;;0.90;;
32172;SDS011;18679;45.190;5.722;2022-08-01T13:12:32;1.27;;;1.02;;
32172;SDS011;18679;45.190;5.722;2022-08-01T13:15:34;1.25;;;0.90;;
32172;SDS011;18679;45.190;5.722;2022-08-01T13:18:36;0.98;;;0.88;;
32172;SDS011;18679;45.190;5.722;2022-08-01T13:21:37;1.25;;;1.00;;
32172;SDS011;18679;45.190;5.722;2022-08-01T13:24:38;2.38;;;1.05;;
32172;SDS011;18679;45.190;5.722;2022-08-01T13:27:39;1.63;;;1.30;;
32172;SDS011;18679;45.190;5.722;2022-08-01T13:30:50;1.20;;;1.08;;
32172;SDS011;18679;45.190;5.722;2022-08-01T13:34:01;3.67;;;1.30;;
32172;SDS011;18679;45.190;5.722;2022-08-01T13:37:03;2.45;;;0.75;;
32172;SDS011;18679;45.190;5.722;2022-08-01T13:40:08;1.13;;;0.95;;
32172;SDS011;18679;45.190;5.722;2022-08-01T13:43:10;3.70;;;0.90;;
32172;SDS011;18679;45.190;5.722;2022-08-01T13:46:11;2.30;;;1.02;;
32172;SDS011;18679;45.190;5.722;2022-08-01T13:49:12;1.38;;;0.93;;
32172;SDS011;18679;45.190;5.722;2022-08-01T13:52:13;1.30;;;1.00;;
32172;SDS011;18679;45.190;5.722;2022-08-01T13:55:14;1.15;;;0.80;;
32172;SDS011;18679;45.190;5.722;2022-08-01T13:58:15;4.35;;;0.85;;
32172;SDS011;18679;45.190;5.722;2022-08-01T14:01:16;0.80;;;0.80;;
32172;SDS011;18679;45.190;5.722;2022-08-01T14:04:16;2.78;;;0.90;;
32172;SDS011;18679;45.190;5.722;2022-08-01T14:07:17;1.38;;;0.90;;
32172;SDS011;18679;45.190;5.722;2022-08-01T14:10:18;1.05;;;0.80;;
32172;SDS011;18679;45.190;5.722;2022-08-01T14:13:19;3.83;;;1.00;;
32172;SDS011;18679;45.190;5.722;2022-08-01T14:16:20;4.70;;;1.02;;
32172;SDS011;18679;45.190;5.722;2022-08-01T14:19:21;1.20;;;1.10;;
32172;SDS011;18679;45.190;5.722;2022-08-01T14:22:22;2.75;;;0.70;;
32172;SDS011;18679;45.190;5.722;2022-08-01T14:25:23;2.63;;;0.80;;
32172;SDS011;18679;45.190;5.722;2022-08-01T14:28:24;1.77;;;0.88;;
32172;SDS011;18679;45.190;5.722;2022-08-01T14:31:27;1.90;;;0.80;;
32172;SDS011;18679;45.190;5.722;2022-08-01T14:34:29;1.48;;;0.82;;
32172;SDS011;18679;45.190;5.722;2022-08-01T14:37:30;5.97;;;1.15;;
32172;SDS011;18679;45.190;5.722;2022-08-01T14:40:31;6.10;;;1.58;;
32172;SDS011;18679;45.190;5.722;2022-08-01T14:43:32;0.75;;;0.75;;
32172;SDS011;18679;45.190;5.722;2022-08-01T14:46:33;1.80;;;0.75;;
32172;SDS011;18679;45.190;5.722;2022-08-01T14:49:34;3.60;;;1.00;;
32172;SDS011;18679;45.190;5.722;2022-08-01T14:52:36;1.77;;;0.85;;
32172;SDS011;18679;45.190;5.722;2022-08-01T14:55:38;1.85;;;0.82;;
32172;SDS011;18679;45.190;5.722;2022-08-01T14:58:39;3.90;;;0.80;;
32172;SDS011;18679;45.190;5.722;2022-08-01T15:01:39;1.70;;;1.10;;
32172;SDS011;18679;45.190;5.722;2022-08-01T15:04:41;7.00;;;1.10;;
32172;SDS011;18679;45.190;5.722;2022-08-01T15:07:41;3.22;;;0.70;;
32172;SDS011;18679;45.190;5.722;2022-08-01T15:10:42;1.67;;;0.90;;
32172;SDS011;18679;45.190;5.722;2022-08-01T15:13:43;1.10;;;0.80;;
32172;SDS011;18679;45.190;5.722;2022-08-01T15:16:44;1.38;;;0.60;;
32172;SDS011;18679;45.190;5.722;2022-08-01T15:19:46;2.45;;;1.00;;
32172;SDS011;18679;45.190;5.722;2022-08-01T15:22:49;0.90;;;0.80;;
32172;SDS011;18679;45.190;5.722;2022-08-01T15:25:49;3.90;;;0.73;;
32172;SDS011;18679;45.190;5.722;2022-08-01T15:28:50;0.82;;;0.70;;
32172;SDS011;18679;45.190;5.722;2022-08-01T15:31:52;5.20;;;1.00;;
32172;SDS011;18679;45.190;5.722;2022-08-01T15:34:53;4.03;;;1.08;;
32172;SDS011;18679;45.190;5.722;2022-08-01T15:37:54;2.55;;;0.75;;
32172;SDS011;18679;45.190;5.722;2022-08-01T15:40:55;2.88;;;0.80;;
32172;SDS011;18679;45.190;5.722;2022-08-01T15:43:56;1.30;;;0.82;;
32172;SDS011;18679;45.190;5.722;2022-08-01T15:46:57;3.38;;;1.00;;
32172;SDS011;18679;45.190;5.722;2022-08-01T15:49:58;1.92;;;0.90;;
32172;SDS011;18679;45.190;5.722;2022-08-01T15:53:01;3.00;;;0.77;;
32172;SDS011;18679;45.190;5.722;2022-08-01T15:56:02;1.00;;;0.90;;
32172;SDS011;18679;45.190;5.722;2022-08-01T15:59:03;3.47;;;1.00;;
32172;SDS011;18679;45.190;5.722;2022-08-01T16:02:05;0.95;;;0.63;;
32172;SDS011;18679;45.190;5.722;2022-08-01T16:05:06;1.73;;;0.80;;
32172;SDS011;18679;45.190;5.722;2022-08-01T16:08:08;3.13;;;0.70;;
32172;SDS011;18679;45.190;5.722;2022-08-01T16:11:09;0.75;;;0.60;;
32172;SDS011;18679;45.190;5.722;2022-08-01T16:14:10;2.70;;;1.00;;
32172;SDS011;18679;45.190;5.722;2022-08-01T16:17:11;4.28;;;0.82;;
32172;SDS011;18679;45.190;5.722;2022-08-01T16:20:11;1.38;;;0.90;;
32172;SDS011;18679;45.190;5.722;2022-08-01T16:23:13;3.10;;;1.00;;
32172;SDS011;18679;45.190;5.722;2022-08-01T16:26:15;1.00;;;0.75;;
32172;SDS011;18679;45.190;5.722;2022-08-01T16:29:16;1.00;;;0.80;;
32172;SDS011;18679;45.190;5.722;2022-08-01T16:32:17;1.05;;;0.73;;
32172;SDS011;18679;45.190;5.722;2022-08-01T16:35:18;2.53;;;0.95;;
32172;SDS011;18679;45.190;5.722;2022-08-01T16:38:19;2.95;;;1.00;;
32172;SDS011;18679;45.190;5.722;2022-08-01T16:41:22;1.38;;;0.90;;
32172;SDS011;18679;45.190;5.722;2022-08-01T16:44:23;1.65;;;0.95;;
32172;SDS011;18679;45.190;5.722;2022-08-01T16:47:24;1.42;;;0.73;;
32172;SDS011;18679;45.190;5.722;2022-08-01T16:50:25;0.60;;;0.52;;
32172;SDS011;18679;45.190;5.722;2022-08-01T16:53:26;2.35;;;0.88;;
32172;SDS011;18679;45.190;5.722;2022-08-01T16:56:27;2.85;;;0.70;;
32172;SDS011;18679;45.190;5.722;2022-08-01T16:59:28;1.02;;;0.75;;
32172;SDS011;18679;45.190;5.722;2022-08-01T17:02:29;4.18;;;0.90;;
32172;SDS011;18679;45.190;5.722;2022-08-01T17:05:30;1.13;;;0.70;;
32172;SDS011;18679;45.190;5.722;2022-08-01T17:08:32;0.85;;;0.68;;
32172;SDS011;18679;45.190;5.722;2022-08-01T17:11:33;1.35;;;0.60;;
32172;SDS011;18679;45.190;5.722;2022-08-01T17:14:34;1.27;;;0.82;;
32172;SDS011;18679;45.190;5.722;2022-08-01T17:17:38;1.55;;;0.73;;
32172;SDS011;18679;45.190;5.722;2022-08-01T17:20:39;2.60;;;0.85;;
32172;SDS011;18679;45.190;5.722;2022-08-01T17:23:42;2.20;;;1.00;;
32172;SDS011;18679;45.190;5.722;2022-08-01T17:26:43;1.52;;;0.82;;
32172;SDS011;18679;45.190;5.722;2022-08-01T17:29:44;1.55;;;0.80;;
32172;SDS011;18679;45.190;5.722;2022-08-01T17:32:45;1.30;;;0.80;;
32172;SDS011;18679;45.190;5.722;2022-08-01T17:35:47;1.25;;;1.00;;
32172;SDS011;18679;45.190;5.722;2022-08-01T17:38:48;2.90;;;0.77;;
32172;SDS011;18679;45.190;5.722;2022-08-01T17:41:49;3.35;;;0.90;;
32172;SDS011;18679;45.190;5.722;2022-08-01T17:44:50;1.17;;;0.90;;
32172;SDS011;18679;45.190;5.722;2022-08-01T17:47:50;0.82;;;0.60;;
32172;SDS011;18679;45.190;5.722;2022-08-01T17:50:51;0.95;;;0.70;;
32172;SDS011;18679;45.190;5.722;2022-08-01T17:53:53;2.30;;;0.60;;
32172;SDS011;18679;45.190;5.722;2022-08-01T17:56:53;1.00;;;0.90;;
32172;SDS011;18679;45.190;5.722;2022-08-01T17:59:55;4.03;;;1.30;;
32172;SDS011;18679;45.190;5.722;2022-08-01T18:02:57;2.63;;;0.75;;
32172;SDS011;18679;45.190;5.722;2022-08-01T18:05:58;2.95;;;1.20;;
32172;SDS011;18679;45.190;5.722;2022-08-01T18:08:59;1.23;;;0.80;;
32172;SDS011;18679;45.190;5.722;2022-08-01T18:12:00;3.03;;;1.67;;
32172;SDS011;18679;45.190;5.722;2022-08-01T18:15:02;1.67;;;0.77;;
32172;SDS011;18679;45.190;5.722;2022-08-01T18:18:05;1.40;;;0.75;;
32172;SDS011;18679;45.190;5.722;2022-08-01T18:21:06;1.00;;;0.65;;
32172;SDS011;18679;45.190;5.722;2022-08-01T18:24:07;3.45;;;0.95;;
32172;SDS011;18679;45.190;5.722;2022-08-01T18:27:08;3.95;;;0.85;;
32172;SDS011;18679;45.190;5.722;2022-08-01T18:30:09;1.40;;;0.80;;
32172;SDS011;18679;45.190;5.722;2022-08-01T18:33:10;1.42;;;0.60;;
32172;SDS011;18679;45.190;5.722;2022-08-01T18:36:11;1.70;;;1.10;;
32172;SDS011;18679;45.190;5.722;2022-08-01T18:39:12;1.00;;;0.90;;
32172;SDS011;18679;45.190;5.722;2022-08-01T18:42:13;1.05;;;0.90;;
32172;SDS011;18679;45.190;5.722;2022-08-01T18:45:14;0.95;;;0.80;;
32172;SDS011;18679;45.190;5.722;2022-08-01T18:48:15;1.77;;;0.82;;
32172;SDS011;18679;45.190;5.722;2022-08-01T18:51:16;2.17;;;0.82;;
32172;SDS011;18679;45.190;5.722;2022-08-01T18:54:17;1.00;;;0.95;;
32172;SDS011;18679;45.190;5.722;2022-08-01T18:57:18;1.10;;;0.85;;
32172;SDS011;18679;45.190;5.722;2022-08-01T19:00:19;2.33;;;1.10;;